DRI Storm Peak Lab. Weather observations

Data are for 5 minute period ending at time listed.
 Day   Time    Ave.   Ave.  Ave.  Vector  Max.   Total    Baro.    Solar      Aerosol      Ave.  Ultrafine   Snow  
  of    of     Air    Rel.  Wind   Wind   Wind  Precip.   Pres.  Radiation   Aerosol      Ozone   Aerosol    Depth 
Year   Day     Temp.  Hum.  Speed  Dir.   Gust                               Ave.   Max.            Ave.           
2018   (MST)    F      %     mph   deg.    mph    in.      mb.     w/m2         #/cm3      ppbv    #/cm3      in.  
-------------------------------------------------------------------------------------------------------------------
 231   15:05   48.9    66    1.8   293     1.8   999.00    698.0    999.0    999000   999000   999.0    999000   999.0
 231   15:10   49.7    67    1.8   293     1.8   999.00    698.0    999.0    999000   999000   999.0    999000   999.0
 231   15:15   49.0    67    1.8   293     2.4   999.00    697.9    999.0    999000   999000   999.0    999000   999.0
 231   15:20   48.7    66    1.8   293     1.8   999.00    698.0    999.0    999000   999000   999.0    999000   999.0
 231   15:25   48.2    66    2.7   293    13.2   999.00    698.0    999.0    999000   999000   999.0    999000   999.0
 231   15:30   48.1    65    3.0   292     6.3   999.00    698.0    999.0    999000   999000   999.0    999000   999.0
 231   15:35   48.5    63    3.2   292     7.9   999.00    698.0    999.0    999000   999000   999.0    999000   999.0
 231   15:40   48.7    61    5.7   292    15.2   999.00    698.0    999.0    999000   999000   999.0    999000   999.0
 231   15:45   48.2    60    7.9   292    15.4   999.00    697.9    999.0    999000   999000   999.0    999000   999.0
 231   15:50   48.1    62   10.3   290    23.8   999.00    697.8    999.0    999000   999000   999.0    999000   999.0
 231   15:55   47.7    66    5.5   296    13.7   999.00    697.9    999.0    999000   999000   999.0    999000   999.0
 231   16:00   47.6    70    3.1   296     7.9   999.00    698.0    999.0    999000   999000   999.0    999000   999.0
 231   16:05   47.6    63    2.4   296     5.5   999.00    698.0    999.0    999000   999000   999.0    999000   999.0
 231   16:10   47.7    61    4.9   296    10.0   999.00    697.9    999.0    999000   999000   999.0    999000   999.0
 231   16:15   47.1    62    9.6   296    12.6   999.00    697.9    999.0    999000   999000   999.0    999000   999.0
 231   16:20   47.5    71    2.7   296     5.9   999.00    698.0    999.0    999000   999000   999.0    999000   999.0
 231   16:25   47.9    72    2.0   296     4.2   999.00    698.1    999.0    999000   999000   999.0    999000   999.0
 231   16:30   47.8    67    1.8   296     2.2   999.00    698.1    999.0    999000   999000   999.0    999000   999.0
 231   16:35   48.0    70    2.0   296     3.5   999.00    698.0    999.0    999000   999000   999.0    999000   999.0
 231   16:40   47.7    72    1.8   296     1.8   999.00    698.0    999.0    999000   999000   999.0    999000   999.0
 231   16:45   48.2    68    1.8   296     2.4   999.00    698.0    999.0    999000   999000   999.0    999000   999.0
 231   16:50   49.7    62    1.8   296     2.2   999.00    697.9    999.0    999000   999000   999.0    999000   999.0
 231   16:55   51.0    63    1.8   296     2.5   999.00    698.0    999.0    999000   999000   999.0    999000   999.0
 231   17:00   50.6    65    1.8   296     2.0   999.00    698.0    999.0    999000   999000   999.0    999000   999.0
 231   17:05   49.7    66    1.8   296     2.5   999.00    698.0    999.0    999000   999000   999.0    999000   999.0
 231   17:10   49.7    67    1.8   296     2.4   999.00    698.0    999.0    999000   999000   999.0    999000   999.0
 231   17:15   51.3    65    1.8   296     2.0   999.00    698.0    999.0    999000   999000   999.0    999000   999.0
 231   17:20   53.0    59    1.9   296     2.9   999.00    698.0    999.0    999000   999000   999.0    999000   999.0
 231   17:25   51.5    60    1.8   296     2.7   999.00    698.0    999.0    999000   999000   999.0    999000   999.0
 231   17:30   49.6    64    1.9   297     2.9   999.00    698.1    999.0    999000   999000   999.0    999000   999.0
 231   17:35   48.2    69    1.8   299     2.5   999.00    698.1    999.0    999000   999000   999.0    999000   999.0
 231   17:40   49.0    68    1.9   299     2.7   999.00    698.0    999.0    999000   999000   999.0    999000   999.0
 231   17:45   48.8    65    1.8   299     2.0   999.00    698.0    999.0    999000   999000   999.0    999000   999.0
 231   17:50   50.2    66    1.8   299     1.8   999.00    698.0    999.0    999000   999000   999.0    999000   999.0
 231   17:55   50.7    66    1.8   299     2.0   999.00    698.0    999.0    999000   999000   999.0    999000   999.0
 231   18:00   49.9    68    1.8   299     1.8   999.00    698.0    999.0    999000   999000   999.0    999000   999.0
 231   18:05   49.8    69    1.8   299     2.2   999.00    698.1    999.0    999000   999000   999.0    999000   999.0
 231   18:10   49.5    68    1.8   299     2.0   999.00    698.1    999.0    999000   999000   999.0    999000   999.0
 231   18:15   49.5    67    1.8   299     2.2   999.00    698.0    999.0    999000   999000   999.0    999000   999.0
 231   18:20   48.1    69    2.2   299     6.6   999.00    698.0    999.0    999000   999000   999.0    999000   999.0
 231   18:25   47.1    70    2.6   305     6.3   999.00    698.0    999.0    999000   999000   999.0    999000   999.0
 231   18:30   46.8    72    3.4   310     8.9   999.00    698.0    999.0    999000   999000   999.0    999000   999.0
 231   18:35   45.9    74    4.3   314    12.6   999.00    698.1    999.0    999000   999000   999.0    999000   999.0
 231   18:40   45.9    74    2.9   324     6.8   999.00    698.1    999.0    999000   999000   999.0    999000   999.0
 231   18:45   45.4    75    7.0   324    13.7   999.00    698.0    999.0    999000   999000   999.0    999000   999.0
 231   18:50   44.6    80    6.9   329    14.3   999.00    698.0    999.0    999000   999000   999.0    999000   999.0
 231   18:55   44.2    84    8.3   342    14.8   999.00    698.0    999.0    999000   999000   999.0    999000   999.0
 231   19:00   43.6    87   10.2   346    15.4   999.00    698.0    999.0    999000   999000   999.0    999000   999.0
 231   19:05   43.2    89   10.9   352    15.9   999.00    698.0    999.0    999000   999000   999.0    999000   999.0
 231   19:10   43.0    90   10.1   351    16.1   999.00    698.0    999.0    999000   999000   999.0    999000   999.0
 231   19:15   42.9    90   12.4   354    15.9   999.00    698.0    999.0    999000   999000   999.0    999000   999.0
 231   19:20   42.7    90   13.1     0    17.4   999.00    698.1    999.0    999000   999000   999.0    999000   999.0
 231   19:25   42.7    89   12.9     0    16.7   999.00    698.1    999.0    999000   999000   999.0    999000   999.0
 231   19:30   42.5    89   13.3     3    16.9   999.00    698.1    999.0    999000   999000   999.0    999000   999.0
 231   19:35   42.4    90   13.9     5    18.2   999.00    698.1    999.0    999000   999000   999.0    999000   999.0
 231   19:40   42.4    90   14.8     6    19.5   999.00    698.2    999.0    999000   999000   999.0    999000   999.0
 231   19:45   42.3    90   13.7     9    18.2   999.00    698.2    999.0    999000   999000   999.0    999000   999.0
 231   19:50   42.2    92   13.8    12    16.7   999.00    698.3    999.0    999000   999000   999.0    999000   999.0
 231   19:55   42.2    92   14.2    12    17.2   999.00    698.3    999.0    999000   999000   999.0    999000   999.0
 231   20:00   42.2    92   13.6    12    16.3   999.00    698.4    999.0    999000   999000   999.0    999000   999.0
 231   20:05   42.1    92   13.8    12    18.0   999.00    698.5    999.0    999000   999000   999.0    999000   999.0
 231   20:10   42.0    92   13.3    12    16.5   999.00    698.5    999.0    999000   999000   999.0    999000   999.0
 231   20:15   42.1    91   13.7    12    18.2   999.00    698.5    999.0    999000   999000   999.0    999000   999.0
 231   20:20   42.0    90   13.9    12    17.2   999.00    698.5    999.0    999000   999000   999.0    999000   999.0
 231   20:25   42.0    91   13.0    12    15.8   999.00    698.6    999.0    999000   999000   999.0    999000   999.0
 231   20:30   42.0    92   13.1    12    16.1   999.00    698.6    999.0    999000   999000   999.0    999000   999.0
 231   20:35   41.8    93   12.3    12    15.6   999.00    698.6    999.0    999000   999000   999.0    999000   999.0
 231   20:40   41.9    93   10.3    12    12.2   999.00    698.6    999.0    999000   999000   999.0    999000   999.0
 231   20:45   41.9    93    9.1    12    10.9   999.00    698.6    999.0    999000   999000   999.0    999000   999.0
 231   20:50   41.9    94   10.2    12    13.2   999.00    698.6    999.0    999000   999000   999.0    999000   999.0
 231   20:55   42.0    94    9.5    12    13.2   999.00    698.6    999.0    999000   999000   999.0    999000   999.0
 231   21:00   42.0    92    8.2    12    10.0   999.00    698.6    999.0    999000   999000   999.0    999000   999.0
 231   21:05   42.2    88    7.1    12     9.8   999.00    698.6    999.0    999000   999000   999.0    999000   999.0
 231   21:10   43.0    81    3.9    12     6.6   999.00    698.6    999.0    999000   999000   999.0    999000   999.0
 231   21:15   43.5    76    1.8    12     1.8   999.00    698.6    999.0    999000   999000   999.0    999000   999.0
 231   21:20   43.9    71    1.8    12     1.8   999.00    698.5    999.0    999000   999000   999.0    999000   999.0
 231   21:25   44.3    66    1.8    12     1.8   999.00    698.5    999.0    999000   999000   999.0    999000   999.0
 231   21:30   44.8    66    1.8    12     1.8   999.00    698.5    999.0    999000   999000   999.0    999000   999.0
 231   21:35   44.7    67    1.8    12     1.8   999.00    698.5    999.0    999000   999000   999.0    999000   999.0
 231   21:40   44.9    65    1.8    12     1.8   999.00    698.6    999.0    999000   999000   999.0    999000   999.0
 231   21:45   45.1    64    1.8    12     1.8   999.00    698.6    999.0    999000   999000   999.0    999000   999.0
 231   21:50   45.0    65    1.8    12     1.8   999.00    698.5    999.0    999000   999000   999.0    999000   999.0
 231   21:55   45.0    66    1.8    12     1.8   999.00    698.5    999.0    999000   999000   999.0    999000   999.0
 231   22:00   44.7    68    1.8    12     1.8   999.00    698.5    999.0    999000   999000   999.0    999000   999.0
 231   22:05   44.4    69    1.8    12     1.8   999.00    698.4    999.0    999000   999000   999.0    999000   999.0
 231   22:10   44.3    69    1.8    12     1.8   999.00    698.4    999.0    999000   999000   999.0    999000   999.0
 231   22:15   44.3    68    1.8    12     1.8   999.00    698.4    999.0    999000   999000   999.0    999000   999.0
 231   22:20   44.7    64    1.8    12     1.8   999.00    698.3    999.0    999000   999000   999.0    999000   999.0
 231   22:25   44.8    64    1.8    12     1.8   999.00    698.3    999.0    999000   999000   999.0    999000   999.0
 231   22:30   44.7    65    1.8    12     1.8   999.00    698.3    999.0    999000   999000   999.0    999000   999.0
 231   22:35   44.6    65    1.8    12     1.8   999.00    698.3    999.0    999000   999000   999.0    999000   999.0
 231   22:40   44.7    64    1.8    12     1.8   999.00    698.3    999.0    999000   999000   999.0    999000   999.0
 231   22:45   45.0    62    1.8    12     1.8   999.00    698.3    999.0    999000   999000   999.0    999000   999.0
 231   22:50   45.3    60    1.8    12     1.8   999.00    698.3    999.0    999000   999000   999.0    999000   999.0
 231   22:55   45.3    60    1.8    12     1.8   999.00    698.2    999.0    999000   999000   999.0    999000   999.0
 231   23:00   45.2    61    1.8    12     1.8   999.00    698.2    999.0    999000   999000   999.0    999000   999.0
 231   23:05   44.7    64    1.8    12     1.8   999.00    698.1    999.0    999000   999000   999.0    999000   999.0
 231   23:10   43.9    68    1.8    12     1.8   999.00    698.1    999.0    999000   999000   999.0    999000   999.0
 231   23:15   43.1    72    1.8    12     1.8   999.00    698.1    999.0    999000   999000   999.0    999000   999.0
 231   23:20   42.8    70    1.8    12     1.8   999.00    698.1    999.0    999000   999000   999.0    999000   999.0
 231   23:25   43.9    62    1.8    12     1.8   999.00    698.0    999.0    999000   999000   999.0    999000   999.0
 231   23:30   44.5    58    1.8    12     1.8   999.00    698.0    999.0    999000   999000   999.0    999000   999.0
 231   23:35   44.7    58    1.8    12     1.8   999.00    698.0    999.0    999000   999000   999.0    999000   999.0
 231   23:40   44.6    58    1.8    12     1.8   999.00    698.0    999.0    999000   999000   999.0    999000   999.0
 231   23:45   44.1    62    1.8    12     2.4   999.00    697.9    999.0    999000   999000   999.0    999000   999.0
 231   23:50   42.8    72    1.8    12     1.8   999.00    697.9    999.0    999000   999000   999.0    999000   999.0
 231   23:55   42.2    74    1.8    12     1.8   999.00    697.9    999.0    999000   999000   999.0    999000   999.0
 232    0:00   42.1    75    1.8    12     1.8   999.00    697.9    999.0    999000   999000   999.0    999000   999.0
 232    0:05   41.9    75    1.8    12     1.8   999.00    697.9    999.0    999000   999000   999.0    999000   999.0
 232    0:10   41.9    74    1.8    12     1.8   999.00    697.8    999.0    999000   999000   999.0    999000   999.0
 232    0:15   42.1    70    1.8    12     1.8   999.00    697.8    999.0    999000   999000   999.0    999000   999.0
 232    0:20   42.5    69    1.8    12     2.2   999.00    697.8    999.0    999000   999000   999.0    999000   999.0
 232    0:25   42.1    75    1.8    12     1.8   999.00    697.8    999.0    999000   999000   999.0    999000   999.0
 232    0:30   42.5    72    1.8    12     1.8   999.00    697.7    999.0    999000   999000   999.0    999000   999.0
 232    0:35   43.8    60    1.8    12     1.8   999.00    697.7    999.0    999000   999000   999.0    999000   999.0
 232    0:40   43.9    59    1.8    12     1.8   999.00    697.7    999.0    999000   999000   999.0    999000   999.0
 232    0:45   43.8    60    1.8    12     1.8   999.00    697.6    999.0    999000   999000   999.0    999000   999.0
 232    0:50   43.5    62    1.8    12     1.8   999.00    697.6    999.0    999000   999000   999.0    999000   999.0
 232    0:55   43.0    63    1.8    12     1.8   999.00    697.6    999.0    999000   999000   999.0    999000   999.0
 232    1:00   42.7    67    1.8    12     1.8   999.00    697.6    999.0    999000   999000   999.0    999000   999.0
 232    1:05   42.0    74    1.8    12     1.8   999.00    697.6    999.0    999000   999000   999.0    999000   999.0
 232    1:10   41.6    75    1.8    12     1.8   999.00    697.6    999.0    999000   999000   999.0    999000   999.0
 232    1:15   41.5    76    1.8    12     1.8   999.00    697.6    999.0    999000   999000   999.0    999000   999.0
 232    1:20   41.4    76    1.8    12     1.8   999.00    697.6    999.0    999000   999000   999.0    999000   999.0
 232    1:25   41.4    74    1.8    12     1.8   999.00    697.6    999.0    999000   999000   999.0    999000   999.0
 232    1:30   41.3    74    1.8    12     1.8   999.00    697.6    999.0    999000   999000   999.0    999000   999.0
 232    1:35   41.3    74    1.8    12     1.8   999.00    697.6    999.0    999000   999000   999.0    999000   999.0
 232    1:40   41.1    75    1.8    12     1.8   999.00    697.5    999.0    999000   999000   999.0    999000   999.0
 232    1:45   41.0    75    1.8    12     1.8   999.00    697.6    999.0    999000   999000   999.0    999000   999.0
 232    1:50   41.0    74    1.8    12     1.8   999.00    697.6    999.0    999000   999000   999.0    999000   999.0
 232    1:55   41.0    75    1.8    12     1.8   999.00    697.6    999.0    999000   999000   999.0    999000   999.0
 232    2:00   41.1    75    1.8    12     1.8   999.00    697.5    999.0    999000   999000   999.0    999000   999.0
 232    2:05   41.1    75    1.8    12     1.8   999.00    697.5    999.0    999000   999000   999.0    999000   999.0
 232    2:10   41.1    75    1.8    12     1.8   999.00    697.5    999.0    999000   999000   999.0    999000   999.0
 232    2:15   41.1    76    1.8    12     2.0   999.00    697.5    999.0    999000   999000   999.0    999000   999.0
 232    2:20   41.1    76    1.8    12     2.5   999.00    697.5    999.0    999000   999000   999.0    999000   999.0
 232    2:25   41.0    77    1.8    12     1.8   999.00    697.6    999.0    999000   999000   999.0    999000   999.0
 232    2:30   41.0    77    1.8    12     1.8   999.00    697.6    999.0    999000   999000   999.0    999000   999.0
 232    2:35   41.0    76    1.8    12     1.8   999.00    697.5    999.0    999000   999000   999.0    999000   999.0
 232    2:40   41.1    76    1.8    12     1.8   999.00    697.5    999.0    999000   999000   999.0    999000   999.0
 232    2:45   41.1    75    1.8    12     1.8   999.00    697.5    999.0    999000   999000   999.0    999000   999.0
 232    2:50   41.1    75    1.8    12     1.8   999.00    697.5    999.0    999000   999000   999.0    999000   999.0
 232    2:55   41.1    75    1.8    12     2.0   999.00    697.4    999.0    999000   999000   999.0    999000   999.0
 232    3:00   41.1    75    1.8    12     2.0   999.00    697.4    999.0    999000   999000   999.0    999000   999.0
 232    3:05   40.8    78    1.8    12     2.5   999.00    697.4    999.0    999000   999000   999.0    999000   999.0
 232    3:10   40.3    84    1.8    12     2.4   999.00    697.4    999.0    999000   999000   999.0    999000   999.0
 232    3:15   40.2    85    1.8    12     2.2   999.00    697.4    999.0    999000   999000   999.0    999000   999.0
 232    3:20   40.2    85    1.8    12     2.5   999.00    697.4    999.0    999000   999000   999.0    999000   999.0
 232    3:25   40.3    85    2.0    12     3.7   999.00    697.5    999.0    999000   999000   999.0    999000   999.0
 232    3:30   40.4    84    2.0    13     2.9   999.00    697.4    999.0    999000   999000   999.0    999000   999.0
 232    3:35   40.5    83    2.0    13     3.3   999.00    697.5    999.0    999000   999000   999.0    999000   999.0
 232    3:40   40.4    82    1.9    13     3.1   999.00    697.5    999.0    999000   999000   999.0    999000   999.0
 232    3:45   40.3    81    1.9    13     2.5   999.00    697.5    999.0    999000   999000   999.0    999000   999.0
 232    3:50   40.4    81    1.8    13     2.4   999.00    697.5    999.0    999000   999000   999.0    999000   999.0
 232    3:55   40.5    81    1.8    13     2.5   999.00    697.5    999.0    999000   999000   999.0    999000   999.0
 232    4:00   40.5    81    1.8    13     2.5   999.00    697.5    999.0    999000   999000   999.0    999000   999.0
 232    4:05   40.5    81    1.8    13     2.4   999.00    697.5    999.0    999000   999000   999.0    999000   999.0
 232    4:10   40.6    80    1.8    13     2.9   999.00    697.5    999.0    999000   999000   999.0    999000   999.0
 232    4:15   40.7    79    1.8    13     2.2   999.00    697.6    999.0    999000   999000   999.0    999000   999.0
 232    4:20   40.5    79    1.9    13     3.3   999.00    697.6    999.0    999000   999000   999.0    999000   999.0
 232    4:25   40.7    78    1.8    13     2.0   999.00    697.5    999.0    999000   999000   999.0    999000   999.0
 232    4:30   40.9    77    1.8    13     2.4   999.00    697.5    999.0    999000   999000   999.0    999000   999.0
 232    4:35   40.8    78    1.8    13     2.5   999.00    697.5    999.0    999000   999000   999.0    999000   999.0
 232    4:40   40.7    79    1.9    13     2.9   999.00    697.4    999.0    999000   999000   999.0    999000   999.0
 232    4:45   40.5    80    1.9    13     3.1   999.00    697.4    999.0    999000   999000   999.0    999000   999.0
 232    4:50   40.3    81    1.9    13     2.7   999.00    697.4    999.0    999000   999000   999.0    999000   999.0
 232    4:55   40.4    80    1.9    13     2.9   999.00    697.4    999.0    999000   999000   999.0    999000   999.0
 232    5:00   40.5    78    2.0    13     2.9   999.00    697.4    999.0    999000   999000   999.0    999000   999.0
 232    5:05   40.5    77    1.9    13     2.5   999.00    697.4    999.0    999000   999000   999.0    999000   999.0
 232    5:10   40.6    76    1.9    13     3.3   999.00    697.4    999.0    999000   999000   999.0    999000   999.0
 232    5:15   40.6    77    1.9    13     2.9   999.00    697.4    999.0    999000   999000   999.0    999000   999.0
 232    5:20   40.8    76    1.9    13     3.3   999.00    697.6    999.0    999000   999000   999.0    999000   999.0
 232    5:25   40.7    76    2.0    13     3.7   999.00    697.6    999.0    999000   999000   999.0    999000   999.0
 232    5:30   40.6    79    2.0    13     4.4   999.00    697.6    999.0    999000   999000   999.0    999000   999.0
 232    5:35   40.5    80    2.4    13     5.7   999.00    697.6    999.0    999000   999000   999.0    999000   999.0
 232    5:40   40.5    82    4.5    19     9.8   999.00    697.6    999.0    999000   999000   999.0    999000   999.0
 232    5:45   40.6    81    6.1    42    11.3   999.00    697.6    999.0    999000   999000   999.0    999000   999.0
 232    5:50   40.6    81    6.2    42     9.1   999.00    697.6    999.0    999000   999000   999.0    999000   999.0
 232    5:55   40.7    81    4.9    42    10.2   999.00    697.6    999.0    999000   999000   999.0    999000   999.0
 232    6:00   40.9    81    4.7    42     8.7   999.00    697.7    999.0    999000   999000   999.0    999000   999.0
 232    6:05   41.3    79    4.4    42     8.9   999.00    697.6    999.0    999000   999000   999.0    999000   999.0
 232    6:10   41.5    78    4.1    42    10.0   999.00    697.6    999.0    999000   999000   999.0    999000   999.0
 232    6:15   41.9    77    5.1    42     9.6   999.00    697.7    999.0    999000   999000   999.0    999000   999.0
 232    6:20   42.4    75    3.7    42     8.5   999.00    697.7    999.0    999000   999000   999.0    999000   999.0
 232    6:25   42.6    74    3.9    42     8.3   999.00    697.8    999.0    999000   999000   999.0    999000   999.0
 232    6:30   42.8    74    4.0    42     8.9   999.00    697.8    999.0    999000   999000   999.0    999000   999.0
 232    6:35   43.1    72    3.2    42     6.6   999.00    697.8    999.0    999000   999000   999.0    999000   999.0
 232    6:40   43.4    71    4.2    43     9.4   999.00    697.8    999.0    999000   999000   999.0    999000   999.0
 232    6:45   43.6    71    4.2    43     9.2   999.00    697.9    999.0    999000   999000   999.0    999000   999.0
 232    6:50   43.6    72    4.6    43     8.9   999.00    697.9    999.0    999000   999000   999.0    999000   999.0
 232    6:55   43.7    71    5.1    43     9.6   999.00    697.9    999.0    999000   999000   999.0    999000   999.0
 232    7:00   43.9    71    4.0    43     7.0   999.00    697.9    999.0    999000   999000   999.0    999000   999.0
 232    7:05   44.2    71    4.2    43     8.3   999.00    697.9    999.0    999000   999000   999.0    999000   999.0
 232    7:10   44.5    71    4.3    43     9.8   999.00    697.9    999.0    999000   999000   999.0    999000   999.0
 232    7:15   44.5    72    4.7    43     8.7   999.00    697.9    999.0    999000   999000   999.0    999000   999.0
 232    7:20   44.4    72    4.9    43     8.1   999.00    698.0    999.0    999000   999000   999.0    999000   999.0
 232    7:25   44.5    71    4.0    43     7.9   999.00    698.0    999.0    999000   999000   999.0    999000   999.0
 232    7:30   45.3    70    3.9    43     7.8   999.00    698.0    999.0    999000   999000   999.0    999000   999.0
 232    7:35   46.0    67    3.1    43     7.4   999.00    698.0    999.0    999000   999000   999.0    999000   999.0
 232    7:40   46.4    67    2.6    43     5.5   999.00    697.9    999.0    999000   999000   999.0    999000   999.0
 232    7:45   46.8    65    3.7    43     5.5   999.00    697.9    999.0    999000   999000   999.0    999000   999.0
 232    7:50   46.9    65    2.8    43     5.3   999.00    697.9    999.0    999000   999000   999.0    999000   999.0
 232    7:55   47.3    63    3.0    43     5.7   999.00    697.9    999.0    999000   999000   999.0    999000   999.0
 232    8:00   47.8    61    3.2    43     6.5   999.00    697.9    999.0    999000   999000   999.0    999000   999.0
 232    8:05   48.2    61    2.7    43     4.2   999.00    697.9    999.0    999000   999000   999.0    999000   999.0
 232    8:10   48.4    59    2.1    42     3.7   999.00    697.9    999.0    999000   999000   999.0    999000   999.0
 232    8:15   48.9    59    2.1    43     3.7   999.00    697.9    999.0    999000   999000   999.0    999000   999.0
 232    8:20   49.4    56    2.4    43     4.4   999.00    697.9    999.0    999000   999000   999.0    999000   999.0
 232    8:25   49.9    54    2.4    43     5.3   999.00    697.9    999.0    999000   999000   999.0    999000   999.0
 232    8:30   50.3    55    3.0    43     7.2   999.00    697.9    999.0    999000   999000   999.0    999000   999.0
 232    8:35   50.7    52    3.2    43     6.3   999.00    697.9    999.0    999000   999000   999.0    999000   999.0
 232    8:40   50.9    53    2.3    43     5.5   999.00    697.9    999.0    999000   999000   999.0    999000   999.0
 232    8:45   51.8    51    2.4    43     5.2   999.00    698.0    999.0    999000   999000   999.0    999000   999.0
 232    8:50   51.9    52    2.9    43     6.1   999.00    698.0    999.0    999000   999000   999.0    999000   999.0
 232    8:55   52.1    51    2.9    43     6.3   999.00    698.0    999.0    999000   999000   999.0    999000   999.0
 232    9:00   51.9    49    2.7    43     5.9   999.00    698.0    999.0    999000   999000   999.0    999000   999.0
 232    9:05   52.3    48    3.1    43     6.1   999.00    698.0    999.0    999000   999000   999.0    999000   999.0
 232    9:10   53.0    50    2.8    43     5.7   999.00    698.0    999.0    999000   999000   999.0    999000   999.0
 232    9:15   53.1    48    3.1    43     5.5   999.00    698.0    999.0    999000   999000   999.0    999000   999.0
 232    9:20   54.0    44    3.0    43     6.5   999.00    698.0    999.0    999000   999000   999.0    999000   999.0
 232    9:25   52.6    43    4.9    73    10.0   999.00    698.0    999.0    999000   999000   999.0    999000   999.0
 232    9:30   52.5    45    3.3    89     6.1   999.00    698.0    999.0    999000   999000   999.0    999000   999.0
 232    9:35   52.9    44    4.3    89     8.1   999.00    698.0    999.0    999000   999000   999.0    999000   999.0
 232    9:40   53.2    46    4.7    90    10.9   999.00    698.1    999.0    999000   999000   999.0    999000   999.0
 232    9:45   52.3    41    3.3    91     8.1   999.00    698.2    999.0    999000   999000   999.0    999000   999.0
 232    9:50   53.3    45    3.6    93     7.0   999.00    698.2    999.0    999000   999000   999.0    999000   999.0
 232    9:55   53.6    44    4.9    95    10.7   999.00    698.2    999.0    999000   999000   999.0    999000   999.0
 232   10:00   53.3    34    5.1    96    12.4   999.00    698.1    999.0    999000   999000   999.0    999000   999.0
 232   10:05   53.6    31    4.5    96    10.4   999.00    698.1    999.0    999000   999000   999.0    999000   999.0
 232   10:10   53.6    36    5.3    97     9.4   999.00    698.1    999.0    999000   999000   999.0    999000   999.0
 232   10:15   54.1    32    5.1    97     8.5   999.00    698.0    999.0    999000   999000   999.0    999000   999.0
 232   10:20   54.8    36    5.5    98    11.7   999.00    698.0    999.0    999000   999000   999.0    999000   999.0
 232   10:25   54.6    31    6.3   100    12.6   999.00    698.0    999.0    999000   999000   999.0    999000   999.0
 232   10:30   55.3    31    4.2   101     8.9   999.00    698.0    999.0    999000   999000   999.0    999000   999.0
 232   10:35   56.5    31    2.7   101     5.7   999.00    698.0    999.0    999000   999000   999.0    999000   999.0
 232   10:40   56.6    29    3.0   101     5.7   999.00    698.1    999.0    999000   999000   999.0    999000   999.0
 232   10:45   55.8    36    3.4   101     5.7   999.00    698.0    999.0    999000   999000   999.0    999000   999.0
 232   10:50   54.4    37    2.6   101     6.5   999.00    698.0    999.0    999000   999000   999.0    999000   999.0
 232   10:55   54.0    29    5.9   101    11.3   999.00    697.9    999.0    999000   999000   999.0    999000   999.0
 232   11:00   53.7    29    5.8   101    11.3   999.00    697.9    999.0    999000   999000   999.0    999000   999.0
 232   11:05   53.5    29    4.0   101     7.2   999.00    697.9    999.0    999000   999000   999.0    999000   999.0
 232   11:10   54.1    28    4.9   101     8.7   999.00    697.8    999.0    999000   999000   999.0    999000   999.0
 232   11:15   53.8    28    4.6   101    11.8   999.00    697.8    999.0    999000   999000   999.0    999000   999.0
 232   11:20   54.9    30    3.7   101     7.8   999.00    697.8    999.0    999000   999000   999.0    999000   999.0
 232   11:25   55.1    28    4.3   102    12.0   999.00    697.8    999.0    999000   999000   999.0    999000   999.0
 232   11:30   55.0    28    3.8   103     9.4   999.00    697.8    999.0    999000   999000   999.0    999000   999.0
 232   11:35   55.4    26    4.7   105     8.3   999.00    697.8    999.0    999000   999000   999.0    999000   999.0
 232   11:40   55.7    27    6.3   105    11.5   999.00    697.8    999.0    999000   999000   999.0    999000   999.0
 232   11:45   55.0    26    4.8   105     9.4   999.00    697.8    999.0    999000   999000   999.0    999000   999.0
 232   11:50   55.6    27    7.2   106    12.6   999.00    697.7    999.0    999000   999000   999.0    999000   999.0
 232   11:55   55.4    29    4.3   107     9.2   999.00    697.7    999.0    999000   999000   999.0    999000   999.0
 232   12:00   57.8    31    3.5   107     8.1   999.00    697.6    999.0    999000   999000   999.0    999000   999.0
 232   12:05   57.3    28    7.0   110    14.8   999.00    697.6    999.0    999000   999000   999.0    999000   999.0
 232   12:10   57.2    30    4.9   115     9.6   999.00    697.6    999.0    999000   999000   999.0    999000   999.0
 232   12:15   57.1    29    4.8   115    13.7   999.00    697.6    999.0    999000   999000   999.0    999000   999.0
 232   12:20   57.2    33    4.7   115     8.5   999.00    697.6    999.0    999000   999000   999.0    999000   999.0
 232   12:25   57.3    30    7.7   118    16.3   999.00    697.6    999.0    999000   999000   999.0    999000   999.0
 232   12:30   57.0    30    7.0   120    12.4   999.00    697.6    999.0    999000   999000   999.0    999000   999.0
 232   12:35   56.2    30    6.6   124    13.9   999.00    697.7    999.0    999000   999000   999.0    999000   999.0
 232   12:40   56.9    30    6.6   131    12.2   999.00    697.7    999.0    999000   999000   999.0    999000   999.0
 232   12:45   57.3    29    6.9   132    15.6   999.00    697.7    999.0    999000   999000   999.0    999000   999.0
 232   12:50   57.3    32    4.5   132    11.5   999.00    697.7    999.0    999000   999000   999.0    999000   999.0
 232   12:55   57.6    34    8.2   132    12.8   999.00    697.6    999.0    999000   999000   999.0    999000   999.0
 232   13:00   57.6    33    6.0   132    10.0   999.00    697.6    999.0    999000   999000   999.0    999000   999.0
 232   13:05   57.7    34    3.9   132     7.0   999.00    697.6    999.0    999000   999000   999.0    999000   999.0
 232   13:10   58.0    35    3.9   132     6.5   999.00    697.6    999.0    999000   999000   999.0    999000   999.0
 232   13:15   58.2    34    4.0   132     7.6   999.00    697.5    999.0    999000   999000   999.0    999000   999.0
 232   13:20   58.3    34    8.8   133    15.0   999.00    697.5    999.0    999000   999000   999.0    999000   999.0
 232   13:25   58.0    33    3.1   133     7.2   999.00    697.5    999.0    999000   999000   999.0    999000   999.0
 232   13:30   58.9    34    3.5   133     7.8   999.00    697.5    999.0    999000   999000   999.0    999000   999.0
 232   13:35   58.9    34    5.5   133     8.9   999.00    697.5    999.0    999000   999000   999.0    999000   999.0
 232   13:40   59.0    34    5.2   135    11.1   999.00    697.5    999.0    999000   999000   999.0    999000   999.0
 232   13:45   58.7    33    4.7   142     8.1   999.00    697.5    999.0    999000   999000   999.0    999000   999.0
 232   13:50   58.9    34    5.4   142    10.2   999.00    697.5    999.0    999000   999000   999.0    999000   999.0
 232   13:55   60.0    36    2.4   142     4.8   999.00    697.5    999.0    999000   999000   999.0    999000   999.0
 232   14:00   60.7    35    2.5   142     6.6   999.00    697.4    999.0    999000   999000   999.0    999000   999.0
 232   14:05   60.6    35    4.5   142     9.2   999.00    697.5    999.0    999000   999000   999.0    999000   999.0
 232   14:10   60.3    35    3.3   142     7.8   999.00    697.5    999.0    999000   999000   999.0    999000   999.0
 232   14:15   60.9    34    4.8   142     8.3   999.00    697.4    999.0    999000   999000   999.0    999000   999.0
 232   14:20   60.2    34    3.1   142     8.3   999.00    697.4    999.0    999000   999000   999.0    999000   999.0
 232   14:25   60.9    34    4.8   142    10.6   999.00    697.3    999.0    999000   999000   999.0    999000   999.0
 232   14:30   61.1    34    4.5   142     7.9   999.00    697.3    999.0    999000   999000   999.0    999000   999.0
 232   14:35   62.0    34    6.0   143    17.1   999.00    697.3    999.0    999000   999000   999.0    999000   999.0
 232   14:40   61.0    31    7.5   143    13.3   999.00    697.3    999.0    999000   999000   999.0    999000   999.0
 232   14:45   62.5    32    3.9   143     8.5   999.00    697.2    999.0    999000   999000   999.0    999000   999.0
 232   14:50   63.0    32    3.8   143     9.2   999.00    697.2    999.0    999000   999000   999.0    999000   999.0
 232   14:55   63.2    31    5.5   143     9.2   999.00    697.2    999.0    999000   999000   999.0    999000   999.0
 232   15:00   63.1    31    5.1   143    10.0   999.00    697.2    999.0    999000   999000   999.0    999000   999.0

Return to DRI Storm Peak Lab. graphs page.


Western Regional Climate Center,wrcc@dri.edu